createdAt,value
2023-04-03T00:00:45.683Z,8.65
2023-04-03T00:03:12.397Z,10.65
2023-04-03T00:05:44.009Z,9.17
2023-04-03T00:08:10.733Z,7.43
2023-04-03T00:10:39.933Z,8.40
2023-04-03T00:13:07.725Z,8.18
2023-04-03T00:15:35.505Z,6.88
2023-04-03T00:18:02.825Z,7.10
2023-04-03T00:20:32.699Z,7.63
2023-04-03T00:22:59.409Z,9.23
2023-04-03T00:25:30.967Z,7.40
2023-04-03T00:28:02.289Z,9.43
2023-04-03T00:30:29.191Z,7.57
2023-04-03T00:32:58.472Z,7.85
2023-04-03T00:35:25.676Z,7.05
2023-04-03T00:37:53.881Z,6.85
2023-04-03T00:40:21.939Z,8.73
2023-04-03T00:42:52.710Z,9.63
2023-04-03T00:45:19.213Z,7.63
2023-04-03T00:47:46.269Z,6.82
2023-04-03T00:50:12.970Z,9.90
2023-04-03T00:52:40.300Z,8.98
2023-04-03T00:55:09.677Z,9.23
2023-04-03T00:57:39.378Z,6.25
2023-04-03T01:00:10.509Z,10.07
2023-04-03T01:02:37.901Z,7.13
2023-04-03T01:05:05.525Z,7.97
2023-04-03T01:07:36.248Z,9.30
2023-04-03T01:10:06.493Z,6.20
2023-04-03T01:12:36.399Z,6.13
2023-04-03T01:15:19.883Z,5.47
2023-04-03T01:17:57.318Z,5.53
2023-04-03T01:20:32.753Z,6.87
2023-04-03T01:23:14.581Z,8.10
2023-04-03T01:25:45.873Z,7.70
2023-04-03T01:28:18.999Z,6.30
2023-04-03T01:31:00.777Z,6.78
2023-04-03T01:33:27.809Z,6.33
2023-04-03T01:35:54.476Z,5.65
2023-04-03T01:38:21.793Z,7.28
2023-04-03T01:40:48.581Z,7.55
2023-04-03T01:43:15.454Z,6.75
2023-04-03T01:45:42.157Z,5.60
2023-04-03T01:48:09.008Z,6.28
2023-04-03T01:50:35.894Z,8.20
2023-04-03T01:53:02.554Z,9.00
2023-04-03T01:55:29.103Z,6.60
2023-04-03T01:57:55.947Z,7.47
2023-04-03T02:00:22.638Z,6.53
2023-04-03T02:02:51.551Z,8.88
2023-04-03T02:05:18.188Z,5.03
2023-04-03T02:07:44.912Z,5.38
2023-04-03T02:10:14.518Z,6.47
2023-04-03T02:12:41.355Z,5.50
2023-04-03T02:15:08.480Z,6.72
2023-04-03T02:17:36.098Z,8.60
2023-04-03T02:20:04.249Z,5.75
2023-04-03T02:22:33.282Z,5.87
2023-04-03T02:25:02.657Z,5.97
2023-04-03T02:27:29.217Z,5.72
2023-04-03T02:29:55.786Z,9.10
2023-04-03T02:32:22.468Z,4.60
2023-04-03T02:34:49.089Z,6.00
2023-04-03T02:37:16.050Z,7.15
2023-04-03T02:39:42.646Z,6.10
2023-04-03T02:42:09.291Z,7.22
2023-04-03T02:44:36.592Z,5.95
2023-04-03T02:47:03.923Z,9.43
2023-04-03T02:49:30.622Z,5.28
2023-04-03T02:51:59.480Z,6.13
2023-04-03T02:54:31.702Z,5.50
2023-04-03T02:56:59.043Z,5.25
2023-04-03T02:59:25.883Z,5.33
2023-04-03T03:01:54.876Z,6.18
2023-04-03T03:04:21.585Z,6.32
2023-04-03T03:06:48.125Z,5.70
2023-04-03T03:09:15.774Z,9.05
2023-04-03T03:11:42.343Z,5.67
2023-04-03T03:14:08.981Z,5.15
2023-04-03T03:16:35.595Z,5.28
2023-04-03T03:19:02.181Z,5.13
2023-04-03T03:21:28.752Z,6.43
2023-04-03T03:23:55.459Z,7.30
2023-04-03T03:26:24.833Z,7.00
2023-04-03T03:28:51.588Z,6.70
2023-04-03T03:31:18.215Z,7.68
2023-04-03T03:33:44.807Z,8.90
2023-04-03T03:36:11.879Z,7.53
2023-04-03T03:38:41.110Z,6.72
2023-04-03T03:41:07.737Z,6.88
2023-04-03T03:43:39.132Z,6.80
2023-04-03T03:46:06.089Z,4.72
2023-04-03T03:48:32.633Z,8.43
2023-04-03T03:51:01.739Z,6.03
2023-04-03T03:53:30.898Z,5.75
2023-04-03T03:55:57.475Z,8.38
2023-04-03T03:58:26.258Z,6.88
2023-04-03T04:00:55.044Z,7.07
2023-04-03T04:03:23.936Z,6.65
2023-04-03T04:05:50.566Z,4.22
2023-04-03T04:08:17.173Z,6.63
2023-04-03T04:10:46.092Z,6.32
2023-04-03T04:13:14.916Z,5.93
2023-04-03T04:15:41.467Z,6.65
2023-04-03T04:18:08.018Z,5.90
2023-04-03T04:20:34.631Z,6.10
2023-04-03T04:23:01.383Z,6.22
2023-04-03T04:25:28.062Z,8.53
2023-04-03T04:27:54.616Z,6.00
2023-04-03T04:30:24.188Z,6.63
2023-04-03T04:32:53.158Z,5.70
2023-04-03T04:35:19.895Z,6.32
2023-04-03T04:37:46.625Z,4.63
2023-04-03T04:40:15.652Z,4.45
2023-04-03T04:42:42.222Z,5.85
2023-04-03T04:45:09.104Z,4.90
2023-04-03T04:47:35.676Z,4.70
2023-04-03T04:50:02.277Z,3.90
2023-04-03T04:52:29.038Z,5.57
2023-04-03T04:54:55.613Z,4.55
2023-04-03T04:57:25.304Z,6.70
2023-04-03T04:59:51.848Z,5.10
2023-04-03T05:02:20.902Z,6.67
2023-04-03T05:04:53.302Z,6.88
2023-04-03T05:07:20.056Z,6.20
2023-04-03T05:09:46.644Z,3.75
2023-04-03T05:12:13.216Z,7.07
2023-04-03T05:14:42.927Z,8.67
2023-04-03T05:17:09.579Z,5.70
2023-04-03T05:19:36.250Z,4.43
2023-04-03T05:22:03.699Z,7.53
2023-04-03T05:24:30.233Z,6.47
2023-04-03T05:26:58.888Z,6.57
2023-04-03T05:29:25.420Z,6.53
2023-04-03T05:31:56.980Z,5.50
2023-04-03T05:34:23.554Z,3.80
2023-04-03T05:36:50.136Z,6.53
2023-04-03T05:39:16.822Z,7.63
2023-04-03T05:41:46.357Z,5.68
2023-04-03T05:44:12.897Z,5.00
2023-04-03T05:46:39.479Z,5.88
2023-04-03T05:49:06.092Z,4.45
2023-04-03T05:51:36.282Z,5.23
2023-04-03T05:54:13.064Z,6.10
2023-04-03T05:56:39.714Z,5.53
2023-04-03T05:59:06.538Z,5.05
2023-04-03T06:01:33.408Z,7.03
2023-04-03T06:04:00.406Z,7.03
2023-04-03T06:06:27.327Z,5.47
2023-04-03T06:08:54.179Z,4.93
2023-04-03T06:11:23.349Z,8.63
2023-04-03T06:13:52.266Z,9.25
2023-04-03T06:16:18.927Z,6.67
2023-04-03T06:18:45.645Z,5.63
2023-04-03T06:21:14.480Z,4.25
2023-04-03T06:23:41.742Z,6.60
2023-04-03T06:26:08.408Z,5.00
2023-04-03T06:28:37.087Z,6.37
2023-04-03T06:31:03.982Z,6.50
2023-04-03T06:33:30.890Z,6.25
2023-04-03T06:36:02.486Z,5.45
2023-04-03T06:38:29.108Z,7.40
2023-04-03T06:40:57.063Z,4.70
2023-04-03T06:43:26.157Z,9.20
2023-04-03T06:45:52.867Z,6.10
2023-04-03T06:48:19.603Z,7.53
2023-04-03T06:50:48.384Z,5.65
2023-04-03T06:53:15.258Z,5.67
2023-04-03T06:55:42.334Z,6.40
2023-04-03T06:58:09.049Z,5.22
2023-04-03T07:00:35.676Z,5.53
2023-04-03T07:03:02.664Z,5.63
2023-04-03T07:05:29.265Z,5.97
2023-04-03T07:07:58.847Z,8.25
2023-04-03T07:10:25.414Z,6.95
2023-04-03T07:12:52.121Z,7.25
2023-04-03T07:15:18.883Z,5.57
2023-04-03T07:17:45.505Z,5.90
2023-04-03T07:20:12.603Z,6.50
2023-04-03T07:22:39.196Z,5.78
2023-04-03T07:25:08.202Z,7.78
2023-04-03T07:27:37.681Z,5.43
2023-04-03T07:30:07.671Z,7.83
2023-04-03T07:32:34.418Z,5.32
2023-04-03T07:35:02.387Z,6.65
2023-04-03T07:37:29.414Z,8.55
2023-04-03T07:39:58.171Z,4.72
2023-04-03T07:42:24.786Z,5.37
2023-04-03T07:44:54.100Z,7.03
2023-04-03T07:47:23.992Z,5.85
2023-04-03T07:49:53.114Z,6.78
2023-04-03T07:52:22.002Z,5.55
2023-04-03T07:54:48.763Z,5.97
2023-04-03T07:57:15.865Z,6.97
2023-04-03T07:59:43.781Z,11.07
2023-04-03T08:02:13.422Z,10.88
2023-04-03T08:04:40.044Z,8.35
2023-04-03T08:07:06.788Z,10.67
2023-04-03T08:09:35.865Z,9.30
2023-04-03T08:12:02.489Z,8.63
2023-04-03T08:14:32.310Z,15.80
2023-04-03T08:16:59.532Z,12.05
2023-04-03T08:19:28.633Z,10.90
2023-04-03T08:22:01.453Z,10.68
2023-04-03T08:24:30.671Z,12.20
2023-04-03T08:26:59.646Z,9.98
2023-04-03T08:29:26.374Z,11.18
2023-04-03T08:31:53.100Z,8.63
2023-04-03T08:34:20.792Z,11.73
2023-04-03T08:36:47.573Z,8.27
2023-04-03T08:39:14.233Z,9.52
2023-04-03T08:41:43.661Z,10.00
2023-04-03T08:44:38.502Z,15.30
2023-04-03T08:47:16.612Z,11.40
2023-04-03T08:49:48.296Z,16.67
2023-04-03T08:52:23.211Z,15.70
2023-04-03T08:54:58.221Z,38.15
2023-04-03T08:57:44.090Z,15.73
2023-04-03T09:00:24.007Z,14.07
2023-04-03T09:02:58.110Z,17.75
2023-04-03T09:05:44.764Z,12.90
2023-04-03T09:08:27.071Z,11.73
2023-04-03T09:11:04.587Z,10.73
2023-04-03T09:13:52.422Z,21.92
2023-04-03T09:16:43.624Z,37.33
2023-04-03T09:20:00.901Z,48.10
2023-04-03T09:22:32.757Z,31.63
2023-04-03T09:25:02.886Z,23.43
2023-04-03T09:27:29.595Z,21.58
2023-04-03T09:29:58.525Z,27.70
2023-04-03T09:32:36.187Z,28.15
2023-04-03T09:35:21.796Z,34.03
2023-04-03T09:38:01.337Z,27.83
2023-04-03T09:40:30.056Z,38.35
2023-04-03T09:43:01.896Z,30.70
2023-04-03T09:45:31.592Z,36.65
2023-04-03T09:48:16.321Z,15.77
2023-04-03T09:51:00.077Z,13.17
2023-04-03T09:53:38.675Z,14.70
2023-04-03T09:56:29.352Z,17.35
2023-04-03T09:58:59.248Z,24.77
2023-04-03T10:01:38.137Z,24.10
2023-04-03T10:04:18.859Z,31.00
2023-04-03T10:06:56.129Z,17.17
2023-04-03T10:09:34.432Z,17.30
2023-04-03T10:12:02.380Z,18.33
2023-04-03T10:14:31.035Z,21.48
2023-04-03T10:17:04.732Z,22.27
2023-04-03T10:19:44.031Z,9.70
2023-04-03T10:22:37.122Z,42.97
2023-04-03T10:25:10.529Z,63.78
2023-04-03T10:27:47.567Z,43.95
2023-04-03T10:30:36.433Z,23.00
2023-04-03T10:33:37.417Z,24.67
2023-04-03T10:36:31.416Z,15.07
2023-04-03T10:39:27.569Z,16.95
2023-04-03T10:42:15.948Z,15.30
2023-04-03T10:44:49.842Z,12.57
2023-04-03T10:47:30.236Z,12.57
2023-04-03T10:50:00.712Z,13.43
2023-04-03T10:52:48.789Z,15.38
2023-04-03T10:55:44.630Z,14.20
2023-04-03T10:58:25.543Z,12.03
2023-04-03T11:00:54.910Z,13.05
2023-04-03T11:03:55.676Z,14.27
2023-04-03T11:06:25.992Z,12.38
2023-04-03T11:09:07.737Z,18.27
2023-04-03T11:11:37.611Z,13.77
2023-04-03T11:14:26.197Z,13.73
2023-04-03T11:17:18.905Z,11.55
2023-04-03T11:20:19.877Z,16.77
2023-04-03T11:22:52.578Z,10.68
2023-04-03T11:25:23.857Z,10.47
2023-04-03T11:27:58.785Z,14.10
2023-04-03T11:30:47.742Z,14.15
2023-04-03T11:33:45.100Z,15.05
2023-04-03T11:36:26.081Z,16.90
2023-04-03T11:39:09.429Z,14.73
2023-04-03T11:41:36.125Z,12.00
2023-04-03T11:44:05.039Z,10.40
2023-04-03T11:46:57.232Z,10.82
2023-04-03T11:50:00.367Z,10.32
2023-04-03T11:52:44.618Z,13.73
2023-04-03T11:55:20.574Z,10.75
2023-04-03T11:57:59.518Z,11.93
2023-04-03T12:00:45.102Z,13.88
2023-04-03T12:03:55.382Z,14.90
2023-04-03T12:06:22.047Z,10.60
2023-04-03T12:08:53.871Z,14.73
2023-04-03T12:11:35.128Z,13.55
2023-04-03T12:14:01.701Z,9.85
2023-04-03T12:16:29.793Z,11.27
2023-04-03T12:19:24.316Z,10.97
2023-04-03T12:21:58.585Z,11.85
2023-04-03T12:24:29.997Z,11.43
2023-04-03T12:26:57.049Z,10.02
2023-04-03T12:29:41.372Z,16.30
2023-04-03T12:32:33.720Z,13.43
2023-04-03T12:35:03.591Z,31.10
2023-04-03T12:38:04.957Z,14.05
2023-04-03T12:40:43.891Z,13.98
2023-04-03T12:43:18.911Z,10.40
2023-04-03T12:45:51.712Z,11.90
2023-04-03T12:48:26.234Z,9.00
2023-04-03T12:50:53.585Z,13.57
2023-04-03T12:53:27.167Z,14.20
2023-04-03T12:55:57.824Z,13.60
2023-04-03T12:58:29.290Z,19.97
2023-04-03T13:01:10.966Z,16.75
2023-04-03T13:03:40.614Z,22.23
2023-04-03T13:06:08.076Z,12.50
2023-04-03T13:08:37.746Z,15.98
2023-04-03T13:11:09.765Z,9.87
2023-04-03T13:13:36.809Z,10.73
2023-04-03T13:16:11.546Z,8.25
2023-04-03T13:18:39.453Z,10.30
2023-04-03T13:21:14.661Z,9.93
2023-04-03T13:23:46.313Z,10.03
2023-04-03T13:26:13.654Z,7.07
2023-04-03T13:28:43.762Z,9.52
2023-04-03T13:31:23.576Z,9.98
2023-04-03T13:33:59.223Z,8.35
2023-04-03T13:36:31.764Z,8.93
2023-04-03T13:39:01.478Z,10.27
2023-04-03T13:41:36.032Z,8.63
2023-04-03T13:44:24.216Z,8.85
2023-04-03T13:47:01.403Z,9.90
2023-04-03T13:49:36.511Z,10.87
2023-04-03T13:52:23.064Z,7.13
2023-04-03T13:54:55.572Z,7.05
2023-04-03T13:57:23.500Z,8.43
2023-04-03T13:59:51.122Z,7.05
2023-04-03T14:02:30.112Z,10.20
2023-04-03T14:05:02.582Z,6.28
2023-04-03T14:07:32.143Z,9.75
2023-04-03T14:09:58.931Z,7.47
2023-04-03T14:12:31.404Z,10.90
2023-04-03T14:14:59.538Z,7.23
2023-04-03T14:17:27.764Z,8.38
2023-04-03T14:19:56.611Z,8.52
2023-04-03T14:22:26.047Z,8.77
2023-04-03T14:24:53.592Z,6.65
2023-04-03T14:27:23.929Z,5.83
2023-04-03T14:29:57.517Z,10.45
2023-04-03T14:32:25.487Z,7.97
2023-04-03T14:34:53.462Z,6.95
2023-04-03T14:37:24.396Z,7.38
2023-04-03T14:39:55.566Z,5.90
2023-04-03T14:42:26.339Z,6.15
2023-04-03T14:44:53.744Z,5.93
2023-04-03T14:47:31.254Z,6.60
2023-04-03T14:50:01.157Z,8.68
2023-04-03T14:52:34.203Z,8.27
2023-04-03T14:55:02.260Z,7.10
2023-04-03T14:57:30.285Z,7.22
2023-04-03T14:59:57.488Z,11.45
2023-04-03T15:02:33.986Z,9.65
2023-04-03T15:05:06.078Z,8.40
2023-04-03T15:07:38.633Z,7.65
2023-04-03T15:10:17.893Z,8.18
2023-04-03T15:12:47.945Z,9.93
2023-04-03T15:15:18.405Z,7.03
2023-04-03T15:17:48.720Z,7.77
2023-04-03T15:20:20.716Z,7.18
2023-04-03T15:22:47.545Z,7.55
2023-04-03T15:25:14.577Z,6.65
2023-04-03T15:27:46.313Z,7.82
2023-04-03T15:30:18.519Z,8.47
2023-04-03T15:32:45.611Z,6.82
2023-04-03T15:35:12.764Z,7.30
2023-04-03T15:37:39.478Z,6.28
2023-04-03T15:40:07.934Z,8.65
2023-04-03T15:42:35.129Z,12.00
2023-04-03T15:45:01.935Z,7.78
2023-04-03T15:47:29.001Z,7.13
2023-04-03T15:49:56.596Z,9.27
2023-04-03T15:52:23.286Z,13.73
2023-04-03T15:54:52.759Z,11.00
2023-04-03T15:57:19.374Z,10.70
2023-04-03T15:59:46.044Z,8.32
2023-04-03T16:02:14.263Z,9.15
2023-04-03T16:04:41.967Z,10.95
2023-04-03T16:07:10.957Z,11.97
2023-04-03T16:09:37.628Z,13.60
2023-04-03T16:12:04.852Z,10.35
2023-04-03T16:14:31.644Z,9.05
2023-04-03T16:17:02.081Z,11.35
2023-04-03T16:19:31.907Z,9.80
2023-04-03T16:22:01.030Z,11.23
2023-04-03T16:24:33.241Z,10.05
2023-04-03T16:27:02.404Z,11.43
2023-04-03T16:29:28.996Z,9.70
2023-04-03T16:31:55.869Z,12.90
2023-04-03T16:34:22.550Z,9.38
2023-04-03T16:36:53.384Z,18.92
2023-04-03T16:39:19.946Z,29.52
2023-04-03T16:41:48.717Z,42.17
2023-04-03T16:44:17.564Z,38.93
2023-04-03T16:46:45.701Z,30.90
2023-04-03T16:49:12.963Z,12.07
2023-04-03T16:51:39.522Z,11.18
2023-04-03T16:54:07.531Z,8.98
2023-04-03T16:56:34.371Z,11.07
2023-04-03T16:59:01.139Z,12.18
2023-04-03T17:01:30.016Z,9.75
2023-04-03T17:03:59.149Z,9.45
2023-04-03T17:06:26.004Z,10.82
2023-04-03T17:08:55.437Z,7.40
2023-04-03T17:11:22.295Z,11.48
2023-04-03T17:13:48.881Z,9.80
2023-04-03T17:16:16.991Z,10.75
2023-04-03T17:18:44.559Z,18.88
2023-04-03T17:21:14.197Z,17.60
2023-04-03T17:23:43.624Z,19.92
2023-04-03T17:26:10.209Z,21.83
2023-04-03T17:28:37.084Z,18.90
2023-04-03T17:31:06.942Z,14.40
2023-04-03T17:33:33.540Z,21.33
2023-04-03T17:36:04.501Z,18.38
2023-04-03T17:38:34.149Z,15.27
2023-04-03T17:41:05.806Z,17.25
2023-04-03T17:43:33.090Z,16.35
2023-04-03T17:46:05.508Z,20.00
2023-04-03T17:48:36.341Z,16.73
2023-04-03T17:51:08.521Z,14.88
2023-04-03T17:53:35.511Z,12.48
2023-04-03T17:56:13.414Z,13.15
2023-04-03T17:58:40.467Z,15.87
2023-04-03T18:01:18.543Z,8.85
2023-04-03T18:03:48.559Z,8.55
2023-04-03T18:06:17.993Z,12.52
2023-04-03T18:08:48.716Z,15.65
2023-04-03T18:11:16.853Z,10.17
2023-04-03T18:13:45.090Z,14.75
2023-04-03T18:16:14.465Z,7.65
2023-04-03T18:18:41.502Z,10.27
2023-04-03T18:21:16.076Z,13.40
2023-04-03T18:23:48.800Z,11.13
2023-04-03T18:26:18.175Z,10.52
2023-04-03T18:28:54.091Z,7.47
2023-04-03T18:31:21.547Z,6.40
2023-04-03T18:33:53.958Z,5.80
2023-04-03T18:36:23.324Z,8.53
2023-04-03T18:38:49.908Z,8.63
2023-04-03T18:41:19.282Z,8.95
2023-04-03T18:43:48.809Z,10.35
2023-04-03T18:46:15.758Z,7.38
2023-04-03T18:48:49.791Z,6.13
2023-04-03T18:51:16.568Z,5.60
2023-04-03T18:53:46.222Z,7.05
2023-04-03T18:56:12.865Z,6.72
2023-04-03T18:58:39.448Z,7.43
2023-04-03T19:01:06.735Z,9.30
2023-04-03T19:03:36.229Z,7.75
2023-04-03T19:06:04.248Z,7.88
2023-04-03T19:08:31.813Z,6.10
2023-04-03T19:10:58.648Z,8.73
2023-04-03T19:13:26.767Z,8.90
2023-04-03T19:15:58.808Z,7.63
2023-04-03T19:18:28.275Z,6.82
2023-04-03T19:20:57.801Z,7.75
2023-04-03T19:23:24.921Z,7.45
2023-04-03T19:26:06.547Z,8.13
2023-04-03T19:28:33.806Z,6.88
2023-04-03T19:31:01.252Z,5.97
2023-04-03T19:33:28.560Z,8.38
2023-04-03T19:35:55.642Z,8.68
2023-04-03T19:38:22.586Z,6.87
2023-04-03T19:40:51.409Z,9.77
2023-04-03T19:43:22.763Z,9.70
2023-04-03T19:45:49.646Z,8.90
2023-04-03T19:48:16.377Z,11.20
2023-04-03T19:50:43.180Z,10.07
2023-04-03T19:53:18.719Z,10.77
2023-04-03T19:55:49.063Z,11.15
2023-04-03T19:58:15.975Z,12.82
2023-04-03T20:00:42.732Z,13.50
2023-04-03T20:03:09.562Z,13.00
2023-04-03T20:05:36.218Z,11.63
2023-04-03T20:08:05.091Z,11.23
2023-04-03T20:10:31.714Z,13.10
2023-04-03T20:12:58.428Z,12.93
2023-04-03T20:15:26.525Z,13.53
2023-04-03T20:17:54.797Z,12.70
2023-04-03T20:20:23.603Z,11.85
2023-04-03T20:22:52.859Z,10.45
2023-04-03T20:25:33.293Z,12.40
2023-04-03T20:28:09.064Z,11.80
2023-04-03T20:30:36.781Z,15.85
2023-04-03T20:33:06.704Z,14.73
2023-04-03T20:35:33.678Z,14.25
2023-04-03T20:38:00.642Z,11.82
2023-04-03T20:40:27.607Z,12.60
2023-04-03T20:42:55.026Z,11.25
2023-04-03T20:45:24.833Z,12.40
2023-04-03T20:47:54.286Z,11.50
2023-04-03T20:50:24.206Z,11.77
2023-04-03T20:52:50.757Z,11.97
2023-04-03T20:55:18.980Z,11.40
2023-04-03T20:57:54.177Z,9.65
2023-04-03T21:00:21.717Z,9.73
2023-04-03T21:02:50.564Z,23.02
2023-04-03T21:05:17.492Z,12.30
2023-04-03T21:08:21.665Z,18.20
2023-04-03T21:11:26.403Z,15.10
2023-04-03T21:14:34.334Z,13.18
2023-04-03T21:17:02.526Z,17.85
2023-04-03T21:19:30.086Z,18.57
2023-04-03T21:22:00.635Z,13.90
2023-04-03T21:24:27.311Z,13.27
2023-04-03T21:26:56.723Z,11.32
2023-04-03T21:29:23.293Z,14.98
2023-04-03T21:31:58.456Z,13.10
2023-04-03T21:34:29.913Z,10.48
2023-04-03T21:37:05.600Z,10.07
2023-04-03T21:39:33.421Z,7.85
2023-04-03T21:42:02.738Z,9.52
2023-04-03T21:44:29.857Z,8.40
2023-04-03T21:46:56.612Z,10.05
2023-04-03T21:49:27.319Z,10.73
2023-04-03T21:51:56.652Z,9.77
2023-04-03T21:54:27.819Z,9.43
2023-04-03T21:56:54.370Z,6.83
2023-04-03T21:59:21.218Z,10.98
2023-04-03T22:01:47.968Z,9.43
2023-04-03T22:04:19.350Z,10.30
2023-04-03T22:06:48.442Z,8.73
2023-04-03T22:09:14.998Z,8.40
2023-04-03T22:11:45.773Z,8.15
2023-04-03T22:14:12.424Z,9.35
2023-04-03T22:16:40.518Z,9.43
2023-04-03T22:19:07.323Z,10.25
2023-04-03T22:21:33.880Z,8.57
2023-04-03T22:24:03.038Z,9.20
2023-04-03T22:26:29.601Z,7.43
2023-04-03T22:28:58.377Z,7.93
2023-04-03T22:31:27.806Z,8.60
2023-04-03T22:33:57.279Z,9.07
2023-04-03T22:36:23.944Z,18.45
2023-04-03T22:38:52.609Z,16.30
2023-04-03T22:41:24.115Z,11.02
2023-04-03T22:43:50.775Z,11.50
2023-04-03T22:46:20.713Z,9.53
2023-04-03T22:48:47.689Z,11.50
2023-04-03T22:51:14.282Z,6.28
2023-04-03T22:53:43.127Z,9.77
2023-04-03T22:56:12.465Z,5.63
2023-04-03T22:58:39.233Z,7.23
2023-04-03T23:01:13.659Z,10.10
2023-04-03T23:03:44.677Z,5.75
2023-04-03T23:06:13.443Z,6.85
2023-04-03T23:08:45.069Z,5.90
2023-04-03T23:11:13.759Z,6.87
2023-04-03T23:13:43.916Z,7.07
2023-04-03T23:16:10.561Z,6.75
2023-04-03T23:18:39.872Z,8.00
2023-04-03T23:21:09.509Z,6.80
2023-04-03T23:23:38.678Z,7.97
2023-04-03T23:26:09.680Z,7.88
2023-04-03T23:28:36.870Z,6.05
2023-04-03T23:31:06.610Z,5.20
2023-04-03T23:33:37.242Z,6.68
2023-04-03T23:36:08.776Z,7.27
2023-04-03T23:38:38.390Z,7.68
2023-04-03T23:41:05.036Z,5.53
2023-04-03T23:43:34.780Z,6.55
2023-04-03T23:46:01.338Z,5.95
2023-04-03T23:48:30.995Z,5.93
2023-04-03T23:50:59.949Z,6.07
2023-04-03T23:53:27.218Z,5.60
2023-04-03T23:55:53.814Z,5.57
2023-04-03T23:58:20.374Z,6.28
